Time;durP1;ratioP1;P1;durP2;ratioP2;P2;SDS_P1;SDS_P2;PMS_P1;PMS_P2;Temp;Humidity;BMP_temperature;BMP_pressure;BME280_temperature;BME280_humidity;BME280_pressure;Samples;Min_cycle;Max_cycle;Signal;HPM_P1;HPM_P2
2024/01/18 00:02:41;;;;;;;88.50;43.73;;;;;;;;;;10115243;29;20041;-79
2024/01/18 00:07:42;;;;;;;94.73;47.80;;;;;;;;;;10113422;29;20131;-81
2024/01/18 00:12:43;;;;;;;96.20;45.03;;;;;;;;;;10115227;29;20485;-86
2024/01/18 00:17:44;;;;;;;96.23;44.90;;;;;;;;;;10110077;29;20064;-79
2024/01/18 00:22:45;;;;;;;90.83;44.43;;;;;;;;;;10113057;29;20048;-79
2024/01/18 00:27:46;;;;;;;162.10;77.50;;;;;;;;;;10110355;29;20045;-80
2024/01/18 00:32:47;;;;;;;97.77;46.40;;;;;;;;;;10108999;29;20492;-79
2024/01/18 00:37:48;;;;;;;90.47;44.80;;;;;;;;;;10107272;29;20136;-81
2024/01/18 00:42:49;;;;;;;115.93;60.90;;;;;;;;;;10119664;29;20396;-81
2024/01/18 00:47:50;;;;;;;84.20;41.63;;;;;;;;;;10108851;29;20053;-81
2024/01/18 00:52:51;;;;;;;81.70;41.50;;;;;;;;;;10115475;29;20043;-81
2024/01/18 00:57:52;;;;;;;79.50;39.87;;;;;;;;;;10110151;29;20404;-80
2024/01/18 01:02:53;;;;;;;57.73;29.00;;;;;;;;;;10097472;29;20679;-79
2024/01/18 01:07:54;;;;;;;53.53;28.37;;;;;;;;;;10090102;29;20051;-80
2024/01/18 01:12:55;;;;;;;54.57;27.87;;;;;;;;;;10102780;29;20684;-80
2024/01/18 01:17:56;;;;;;;49.00;25.40;;;;;;;;;;10084869;29;20560;-79
2024/01/18 01:22:57;;;;;;;45.93;24.00;;;;;;;;;;10113560;29;20107;-80
2024/01/18 01:27:58;;;;;;;44.43;20.80;;;;;;;;;;10118556;29;20120;-82
2024/01/18 01:32:59;;;;;;;35.23;18.10;;;;;;;;;;10097490;24;20064;-80
2024/01/18 01:38:00;;;;;;;34.80;17.77;;;;;;;;;;10084245;29;20040;-80
2024/01/18 01:43:01;;;;;;;35.47;16.73;;;;;;;;;;10109125;29;20826;-81
2024/01/18 01:48:02;;;;;;;30.93;15.93;;;;;;;;;;10110212;29;20112;-80
2024/01/18 01:53:04;;;;;;;32.07;16.73;;;;;;;;;;10120570;29;20037;-80
2024/01/18 01:58:05;;;;;;;28.67;15.90;;;;;;;;;;10120214;29;20477;-79
2024/01/18 02:03:06;;;;;;;27.80;15.57;;;;;;;;;;10119545;29;20508;-79
2024/01/18 02:08:07;;;;;;;35.77;14.17;;;;;;;;;;10120161;29;20048;-79
2024/01/18 02:13:09;;;;;;;24.23;13.20;;;;;;;;;;10105659;29;20120;-80
2024/01/18 02:18:10;;;;;;;25.63;14.20;;;;;;;;;;10124803;29;20544;-81
2024/01/18 02:23:18;;;;;;;26.13;14.23;;;;;;;;;;10114196;29;20045;-80
2024/01/18 02:28:19;;;;;;;27.07;12.83;;;;;;;;;;10124630;29;20040;-80
2024/01/18 02:33:20;;;;;;;24.10;12.00;;;;;;;;;;10088312;29;20056;-81
2024/01/18 02:38:21;;;;;;;28.53;15.10;;;;;;;;;;10082331;29;20069;-80
2024/01/18 02:43:22;;;;;;;38.53;18.67;;;;;;;;;;10075125;29;20037;-79
2024/01/18 02:48:23;;;;;;;38.33;20.13;;;;;;;;;;10080990;29;20494;-83
2024/01/18 02:53:24;;;;;;;39.13;21.70;;;;;;;;;;10088809;29;20036;-79
2024/01/18 02:58:32;;;;;;;43.60;20.93;;;;;;;;;;10076036;29;20596;-80
2024/01/18 03:03:40;;;;;;;37.40;20.30;;;;;;;;;;10087797;29;20090;-81
2024/01/18 03:08:41;;;;;;;42.90;22.77;;;;;;;;;;10074189;29;20071;-82
2024/01/18 03:13:42;;;;;;;49.47;26.67;;;;;;;;;;10088232;29;20072;-79
2024/01/18 03:18:46;;;;;;;51.93;27.67;;;;;;;;;;10076375;29;20052;-82
2024/01/18 03:23:47;;;;;;;42.73;23.97;;;;;;;;;;10079083;29;20041;-82
2024/01/18 03:28:48;;;;;;;39.57;20.77;;;;;;;;;;10087075;29;20049;-79
2024/01/18 03:33:49;;;;;;;39.47;20.93;;;;;;;;;;10109841;29;20049;-82
2024/01/18 03:38:50;;;;;;;39.20;19.43;;;;;;;;;;10115550;29;20360;-79
2024/01/18 03:43:51;;;;;;;38.93;20.60;;;;;;;;;;10118830;29;20104;-79
2024/01/18 03:48:52;;;;;;;39.20;20.33;;;;;;;;;;10112893;29;20040;-79
2024/01/18 03:53:53;;;;;;;35.67;19.97;;;;;;;;;;10125431;29;20398;-79
2024/01/18 03:58:54;;;;;;;46.27;24.53;;;;;;;;;;10116386;29;20413;-79
2024/01/18 04:03:55;;;;;;;42.20;21.70;;;;;;;;;;10119808;29;20071;-79
2024/01/18 04:08:56;;;;;;;41.17;21.47;;;;;;;;;;10121036;29;20032;-78
2024/01/18 04:13:57;;;;;;;42.73;21.40;;;;;;;;;;10115856;29;20028;-81
2024/01/18 04:18:58;;;;;;;43.20;21.83;;;;;;;;;;10122453;29;20088;-80
2024/01/18 04:23:59;;;;;;;52.63;26.00;;;;;;;;;;10107029;29;20123;-81
2024/01/18 04:29:07;;;;;;;45.70;24.53;;;;;;;;;;10123359;29;20133;-79
2024/01/18 04:34:08;;;;;;;65.43;32.90;;;;;;;;;;10093477;29;20508;-79
2024/01/18 04:39:09;;;;;;;48.77;24.37;;;;;;;;;;10067681;29;20051;-82
2024/01/18 04:44:10;;;;;;;50.47;25.30;;;;;;;;;;10082671;29;20097;-83
2024/01/18 04:49:11;;;;;;;52.13;25.50;;;;;;;;;;10071578;29;20072;-79
2024/01/18 04:54:12;;;;;;;52.87;28.87;;;;;;;;;;10084580;29;20051;-80
2024/01/18 04:59:13;;;;;;;61.10;32.67;;;;;;;;;;10077916;29;20043;-80
2024/01/18 05:04:14;;;;;;;84.93;42.20;;;;;;;;;;10081096;29;20037;-79
2024/01/18 05:09:16;;;;;;;69.20;31.93;;;;;;;;;;10080194;29;20037;-79
2024/01/18 05:14:17;;;;;;;75.60;35.33;;;;;;;;;;10082618;29;20040;-80
2024/01/18 05:19:19;;;;;;;65.90;33.13;;;;;;;;;;10061053;29;20053;-81
2024/01/18 05:24:20;;;;;;;70.57;35.83;;;;;;;;;;10080324;29;20039;-79
2024/01/18 05:29:21;;;;;;;78.03;34.90;;;;;;;;;;10069668;29;20325;-79
2024/01/18 05:34:22;;;;;;;82.70;36.57;;;;;;;;;;10106854;29;20056;-80
2024/01/18 05:39:25;;;;;;;71.37;37.17;;;;;;;;;;10102950;29;20036;-79
2024/01/18 05:44:26;;;;;;;91.03;42.63;;;;;;;;;;10122738;29;20029;-80
2024/01/18 05:49:27;;;;;;;100.67;45.20;;;;;;;;;;10121094;29;20079;-80
2024/01/18 05:54:35;;;;;;;105.03;49.90;;;;;;;;;;10121590;29;20039;-78
2024/01/18 05:59:36;;;;;;;101.27;46.70;;;;;;;;;;10121919;29;20037;-80
2024/01/18 06:04:37;;;;;;;100.37;49.23;;;;;;;;;;10121094;29;20037;-79
2024/01/18 06:09:38;;;;;;;97.37;45.60;;;;;;;;;;10122225;29;20045;-80
2024/01/18 06:14:39;;;;;;;96.03;47.43;;;;;;;;;;10122067;29;20513;-80
2024/01/18 06:19:40;;;;;;;112.93;53.70;;;;;;;;;;10121354;29;20043;-80
2024/01/18 06:24:41;;;;;;;100.13;47.13;;;;;;;;;;10120959;29;20036;-78
2024/01/18 06:29:42;;;;;;;92.60;43.50;;;;;;;;;;10121096;29;20048;-78
2024/01/18 06:34:43;;;;;;;95.87;41.77;;;;;;;;;;10121569;29;20060;-80
2024/01/18 06:39:44;;;;;;;95.33;41.47;;;;;;;;;;10108847;29;20044;-80
2024/01/18 06:44:46;;;;;;;88.03;39.57;;;;;;;;;;10120598;29;20073;-81
2024/01/18 06:49:47;;;;;;;96.17;40.27;;;;;;;;;;10120990;29;20487;-80
2024/01/18 06:54:48;;;;;;;94.53;41.93;;;;;;;;;;10121524;29;20112;-80
2024/01/18 06:59:49;;;;;;;82.90;38.83;;;;;;;;;;10120713;29;20033;-80
2024/01/18 07:04:50;;;;;;;96.00;40.90;;;;;;;;;;10128114;29;20092;-80
2024/01/18 07:09:51;;;;;;;92.83;41.97;;;;;;;;;;10127425;29;20596;-80
2024/01/18 07:14:52;;;;;;;109.40;47.20;;;;;;;;;;10127092;29;20039;-80
2024/01/18 07:19:56;;;;;;;115.03;48.33;;;;;;;;;;10126880;29;20036;-81
2024/01/18 07:24:57;;;;;;;110.37;49.47;;;;;;;;;;10117307;29;20488;-79
2024/01/18 07:29:58;;;;;;;98.33;44.00;;;;;;;;;;10122969;29;20671;-81
2024/01/18 07:35:00;;;;;;;115.00;49.53;;;;;;;;;;10126199;29;20029;-80
2024/01/18 07:40:01;;;;;;;112.37;54.17;;;;;;;;;;10127076;29;20054;-80
2024/01/18 07:45:02;;;;;;;91.07;43.23;;;;;;;;;;10126664;29;20028;-80
2024/01/18 07:50:03;;;;;;;107.73;50.50;;;;;;;;;;10126567;29;20045;-80
2024/01/18 07:55:08;;;;;;;76.33;37.20;;;;;;;;;;10125417;29;20037;-81
2024/01/18 08:00:09;;;;;;;121.70;58.50;;;;;;;;;;10126374;29;20045;-80
2024/01/18 08:05:10;;;;;;;89.13;44.30;;;;;;;;;;10125124;29;20043;-80
2024/01/18 08:10:11;;;;;;;88.77;45.17;;;;;;;;;;10126048;29;20048;-80
2024/01/18 08:15:13;;;;;;;89.33;44.00;;;;;;;;;;10124418;29;20108;-80
2024/01/18 08:20:14;;;;;;;72.07;33.50;;;;;;;;;;10125770;29;20164;-80
2024/01/18 08:25:15;;;;;;;74.77;36.03;;;;;;;;;;10119034;29;20037;-79
2024/01/18 08:30:16;;;;;;;73.27;35.03;;;;;;;;;;10106619;29;20056;-81
2024/01/18 08:35:17;;;;;;;71.43;33.37;;;;;;;;;;10124136;29;20029;-80
2024/01/18 08:40:18;;;;;;;47.37;23.07;;;;;;;;;;10125297;29;20028;-80
2024/01/18 08:45:20;;;;;;;50.03;23.17;;;;;;;;;;10124008;29;20020;-81
2024/01/18 08:50:23;;;;;;;52.27;24.70;;;;;;;;;;10123356;29;20095;-81
2024/01/18 08:55:31;;;;;;;46.80;21.40;;;;;;;;;;10123478;29;20032;-80
2024/01/18 09:00:32;;;;;;;38.33;18.10;;;;;;;;;;10122673;29;20033;-82
2024/01/18 09:05:33;;;;;;;33.77;16.90;;;;;;;;;;10122669;29;20032;-82
2024/01/18 09:10:34;;;;;;;38.27;17.97;;;;;;;;;;10123556;29;20024;-81
2024/01/18 09:15:35;;;;;;;63.10;28.17;;;;;;;;;;10122422;29;20028;-80
2024/01/18 09:20:37;;;;;;;68.27;34.53;;;;;;;;;;10122692;29;20032;-80
2024/01/18 09:25:38;;;;;;;29.57;14.40;;;;;;;;;;10122451;29;20028;-80
2024/01/18 09:30:39;;;;;;;25.77;13.93;;;;;;;;;;10122235;29;20053;-81
2024/01/18 09:35:40;;;;;;;20.83;11.20;;;;;;;;;;10122513;29;20024;-80
2024/01/18 09:40:49;;;;;;;14.80;8.27;;;;;;;;;;10120487;29;20056;-82
2024/01/18 09:45:51;;;;;;;17.43;9.10;;;;;;;;;;10122031;29;20525;-81
2024/01/18 09:50:53;;;;;;;23.30;11.50;;;;;;;;;;10120407;29;20059;-81
2024/01/18 09:55:55;;;;;;;43.03;21.93;;;;;;;;;;10103275;29;20388;-80
2024/01/18 10:00:59;;;;;;;47.03;25.90;;;;;;;;;;10109115;29;20659;-80
2024/01/18 10:06:00;;;;;;;27.23;13.83;;;;;;;;;;10120960;29;20093;-82
2024/01/18 10:11:01;;;;;;;30.20;14.40;;;;;;;;;;10127091;29;20116;-82
2024/01/18 10:16:02;;;;;;;24.50;12.10;;;;;;;;;;10120620;29;20036;-80
2024/01/18 10:21:03;;;;;;;27.80;13.93;;;;;;;;;;10119873;29;20394;-80
2024/01/18 10:26:05;;;;;;;22.93;11.50;;;;;;;;;;10123665;29;20532;-82
2024/01/18 10:31:13;;;;;;;18.27;10.67;;;;;;;;;;10120112;29;20446;-81
2024/01/18 10:36:21;;;;;;;19.47;10.13;;;;;;;;;;10123183;29;20037;-80
2024/01/18 10:41:22;;;;;;;17.50;8.93;;;;;;;;;;10124020;29;20047;-80
2024/01/18 10:46:23;;;;;;;16.83;9.53;;;;;;;;;;10126539;29;20039;-80
2024/01/18 10:51:25;;;;;;;15.83;9.07;;;;;;;;;;10128353;29;20043;-80
2024/01/18 10:56:27;;;;;;;21.10;11.73;;;;;;;;;;10127252;29;20043;-80
2024/01/18 11:01:28;;;;;;;24.23;12.17;;;;;;;;;;10127262;29;20108;-80
2024/01/18 11:06:30;;;;;;;24.67;12.53;;;;;;;;;;10100126;29;20056;-80
2024/01/18 11:11:31;;;;;;;23.87;11.97;;;;;;;;;;10124699;29;20137;-80
2024/01/18 11:16:32;;;;;;;22.83;11.60;;;;;;;;;;10125830;29;20037;-81
2024/01/18 11:21:43;;;;;;;23.47;13.10;;;;;;;;;;10126850;29;20477;-83
2024/01/18 11:26:44;;;;;;;50.73;24.47;;;;;;;;;;10126137;29;20035;-81
2024/01/18 11:31:49;;;;;;;85.10;37.47;;;;;;;;;;10124747;29;20059;-83
2024/01/18 11:36:50;;;;;;;88.07;37.27;;;;;;;;;;10121107;29;20060;-81
2024/01/18 11:41:51;;;;;;;96.97;43.43;;;;;;;;;;10124392;29;20039;-81
2024/01/18 11:46:52;;;;;;;103.67;46.43;;;;;;;;;;10125195;29;20043;-81
2024/01/18 11:51:58;;;;;;;82.67;37.10;;;;;;;;;;10125996;29;20039;-82
2024/01/18 11:57:01;;;;;;;31.17;16.30;;;;;;;;;;10117730;29;20035;-82
2024/01/18 12:02:03;;;;;;;23.83;12.17;;;;;;;;;;10124630;29;20051;-83
2024/01/18 12:07:05;;;;;;;26.63;13.50;;;;;;;;;;10119316;29;20196;-82
2024/01/18 12:12:07;;;;;;;28.30;14.53;;;;;;;;;;10123958;29;20127;-82
2024/01/18 12:17:12;;;;;;;31.03;14.77;;;;;;;;;;10123809;29;20036;-80
2024/01/18 12:22:13;;;;;;;30.10;14.53;;;;;;;;;;10124466;29;20036;-80
2024/01/18 12:27:14;;;;;;;25.67;14.23;;;;;;;;;;10124319;29;20037;-83
2024/01/18 12:32:17;;;;;;;28.67;13.47;;;;;;;;;;10119925;29;20390;-84
2024/01/18 12:37:18;;;;;;;22.93;11.27;;;;;;;;;;10124462;29;20056;-83
2024/01/18 12:42:23;;;;;;;23.97;11.73;;;;;;;;;;10124117;29;20867;-82
2024/01/18 12:47:24;;;;;;;20.40;11.37;;;;;;;;;;10123205;29;20047;-83
2024/01/18 12:52:32;;;;;;;23.10;11.70;;;;;;;;;;10122244;29;20462;-81
2024/01/18 12:57:33;;;;;;;18.30;9.27;;;;;;;;;;10123385;29;20037;-81
2024/01/18 13:02:34;;;;;;;21.33;11.93;;;;;;;;;;10109709;29;20041;-82
2024/01/18 13:07:35;;;;;;;27.47;13.17;;;;;;;;;;10122256;29;20496;-81
2024/01/18 13:12:37;;;;;;;30.97;15.73;;;;;;;;;;10106084;29;20689;-81
2024/01/18 13:17:39;;;;;;;29.23;14.97;;;;;;;;;;10122095;29;20679;-82
2024/01/18 13:22:40;;;;;;;27.57;14.60;;;;;;;;;;10108076;29;20024;-81
2024/01/18 13:27:42;;;;;;;30.83;15.33;;;;;;;;;;10119704;29;20045;-82
2024/01/18 13:32:43;;;;;;;33.50;16.77;;;;;;;;;;10115870;29;20091;-82
2024/01/18 13:37:51;;;;;;;39.33;17.47;;;;;;;;;;10120939;29;20037;-85
2024/01/18 13:42:52;;;;;;;43.53;21.93;;;;;;;;;;10121383;29;20068;-81
2024/01/18 13:47:53;;;;;;;31.13;15.67;;;;;;;;;;10120562;29;20044;-84
2024/01/18 13:52:54;;;;;;;31.90;15.43;;;;;;;;;;10120402;29;20465;-83
2024/01/18 13:57:55;;;;;;;32.50;16.80;;;;;;;;;;10111118;29;20028;-82
2024/01/18 14:02:56;;;;;;;37.60;17.47;;;;;;;;;;10102240;29;20184;-83
2024/01/18 14:07:57;;;;;;;37.80;17.83;;;;;;;;;;10119432;29;20111;-81
2024/01/18 14:12:59;;;;;;;36.60;17.83;;;;;;;;;;10129586;29;20860;-82
2024/01/18 14:18:00;;;;;;;40.70;18.50;;;;;;;;;;10128674;29;20047;-82
2024/01/18 14:23:01;;;;;;;40.33;19.00;;;;;;;;;;10128223;29;20072;-83
2024/01/18 14:28:02;;;;;;;43.60;20.23;;;;;;;;;;10128779;29;20052;-84
2024/01/18 14:33:13;;;;;;;47.20;21.13;;;;;;;;;;10104702;29;20115;-82
2024/01/18 14:38:14;;;;;;;47.80;21.37;;;;;;;;;;10127682;29;20430;-83
2024/01/18 14:43:15;;;;;;;51.20;23.27;;;;;;;;;;10128173;29;20041;-82
2024/01/18 14:48:16;;;;;;;51.67;22.13;;;;;;;;;;10127606;29;20044;-80
2024/01/18 14:53:18;;;;;;;54.33;22.57;;;;;;;;;;10127236;29;20119;-81
2024/01/18 14:58:25;;;;;;;62.53;24.13;;;;;;;;;;10128071;29;20422;-83
2024/01/18 15:03:26;;;;;;;60.67;24.67;;;;;;;;;;10120522;29;20132;-84
2024/01/18 15:08:27;;;;;;;65.23;26.77;;;;;;;;;;10120277;29;20043;-82
2024/01/18 15:13:29;;;;;;;61.43;26.17;;;;;;;;;;10140136;29;20088;-82
2024/01/18 15:18:30;;;;;;;61.37;26.07;;;;;;;;;;10108132;29;20028;-83
2024/01/18 15:23:31;;;;;;;64.63;25.87;;;;;;;;;;10125940;29;20529;-81
2024/01/18 15:28:32;;;;;;;64.73;27.17;;;;;;;;;;10124745;29;20049;-83
2024/01/18 15:33:33;;;;;;;72.00;30.37;;;;;;;;;;10126353;29;20067;-83
2024/01/18 15:38:36;;;;;;;76.67;30.97;;;;;;;;;;10123192;29;20116;-82
2024/01/18 15:43:37;;;;;;;72.10;30.10;;;;;;;;;;10126535;29;20163;-82
2024/01/18 15:48:38;;;;;;;81.10;31.50;;;;;;;;;;10109097;29;20047;-83
2024/01/18 15:53:39;;;;;;;80.43;32.70;;;;;;;;;;10124150;29;20037;-81
2024/01/18 15:58:40;;;;;;;87.00;31.40;;;;;;;;;;10124381;29;20124;-82
2024/01/18 16:03:41;;;;;;;72.53;30.10;;;;;;;;;;10125488;29;20143;-80
2024/01/18 16:08:42;;;;;;;71.23;29.53;;;;;;;;;;10116999;29;20099;-80
2024/01/18 16:13:43;;;;;;;79.60;32.20;;;;;;;;;;10107406;29;20047;-83
2024/01/18 16:18:45;;;;;;;74.90;32.07;;;;;;;;;;10118227;29;20038;-82
2024/01/18 16:23:46;;;;;;;77.00;30.93;;;;;;;;;;10116032;29;20036;-83
2024/01/18 16:28:53;;;;;;;79.60;34.13;;;;;;;;;;10118614;29;20845;-84
2024/01/18 16:33:54;;;;;;;84.83;37.13;;;;;;;;;;10119065;29;20088;-84
2024/01/18 16:38:55;;;;;;;94.73;36.37;;;;;;;;;;10111501;29;20120;-83
2024/01/18 16:43:56;;;;;;;78.53;30.23;;;;;;;;;;10115767;29;20043;-83
2024/01/18 16:48:57;;;;;;;75.27;32.07;;;;;;;;;;10117969;29;20506;-82
2024/01/18 16:54:03;;;;;;;68.47;29.53;;;;;;;;;;10085517;29;20037;-82
2024/01/18 16:59:04;;;;;;;58.63;25.73;;;;;;;;;;10115033;29;20232;-83
2024/01/18 17:04:08;;;;;;;67.00;29.33;;;;;;;;;;10097893;29;20048;-83
2024/01/18 17:09:10;;;;;;;67.53;31.80;;;;;;;;;;10124958;29;20044;-83
2024/01/18 17:14:11;;;;;;;63.80;29.07;;;;;;;;;;10130667;29;20734;-83
2024/01/18 17:19:13;;;;;;;68.33;29.10;;;;;;;;;;10121953;29;20548;-83
2024/01/18 17:24:14;;;;;;;65.97;29.37;;;;;;;;;;10102841;29;20232;-84
2024/01/18 17:29:15;;;;;;;68.30;28.30;;;;;;;;;;10098522;29;20512;-83
2024/01/18 17:34:16;;;;;;;75.17;33.37;;;;;;;;;;10125535;29;20095;-83
2024/01/18 17:39:17;;;;;;;66.97;27.77;;;;;;;;;;10113849;29;20032;-83
2024/01/18 17:44:18;;;;;;;64.73;27.57;;;;;;;;;;10115939;29;20123;-81
2024/01/18 17:49:20;;;;;;;64.73;28.37;;;;;;;;;;10120605;29;20040;-82
2024/01/18 17:54:21;;;;;;;70.93;30.13;;;;;;;;;;10105571;29;20456;-83
2024/01/18 17:59:23;;;;;;;69.30;32.47;;;;;;;;;;10088137;29;20051;-83
2024/01/18 18:04:24;;;;;;;79.07;35.03;;;;;;;;;;10101112;29;20037;-83
2024/01/18 18:09:26;;;;;;;79.57;35.87;;;;;;;;;;10090251;29;20098;-83
2024/01/18 18:14:27;;;;;;;87.70;36.53;;;;;;;;;;10119842;29;20587;-83
2024/01/18 18:19:28;;;;;;;86.80;35.57;;;;;;;;;;10092060;29;20036;-82
2024/01/18 18:24:30;;;;;;;87.07;36.83;;;;;;;;;;10117903;29;20619;-82
2024/01/18 18:29:31;;;;;;;85.13;34.93;;;;;;;;;;10096328;29;20139;-83
2024/01/18 18:34:32;;;;;;;86.80;37.43;;;;;;;;;;10116511;29;20068;-82
2024/01/18 18:39:33;;;;;;;74.97;32.00;;;;;;;;;;10111786;29;20024;-82
2024/01/18 18:50:13;;;;;;;89.20;35.83;;;;;;;;;;10119937;29;20057;-81
2024/01/18 18:55:16;;;;;;;89.97;36.43;;;;;;;;;;10110516;29;20396;-82
2024/01/18 19:00:17;;;;;;;72.70;30.37;;;;;;;;;;10114871;29;20024;-82
2024/01/18 19:05:19;;;;;;;64.03;26.73;;;;;;;;;;10116299;29;20060;-82
2024/01/18 19:10:20;;;;;;;57.87;24.57;;;;;;;;;;10120892;29;20051;-82
2024/01/18 19:15:21;;;;;;;59.77;26.97;;;;;;;;;;10123298;29;20036;-82
2024/01/18 19:20:22;;;;;;;60.27;25.90;;;;;;;;;;10122429;29;20032;-81
2024/01/18 19:25:24;;;;;;;66.97;29.10;;;;;;;;;;10106179;29;20068;-82
2024/01/18 19:30:25;;;;;;;68.33;28.80;;;;;;;;;;10121157;29;20070;-82
2024/01/18 19:35:29;;;;;;;61.03;27.00;;;;;;;;;;10134027;29;20148;-81
2024/01/18 19:40:30;;;;;;;63.73;27.13;;;;;;;;;;10114373;29;20048;-82
2024/01/18 19:45:32;;;;;;;61.23;26.10;;;;;;;;;;10109626;29;20067;-81
2024/01/18 19:50:35;;;;;;;57.50;26.93;;;;;;;;;;10121194;29;20036;-80
2024/01/18 19:55:36;;;;;;;54.53;25.77;;;;;;;;;;10105791;29;20036;-82
2024/01/18 20:00:37;;;;;;;55.73;23.70;;;;;;;;;;10113017;29;20039;-83
2024/01/18 20:05:38;;;;;;;58.47;24.33;;;;;;;;;;10114545;29;20468;-82
2024/01/18 20:10:39;;;;;;;60.20;27.40;;;;;;;;;;10098451;29;20143;-82
2024/01/18 20:15:43;;;;;;;68.90;30.70;;;;;;;;;;10116402;29;20068;-81
2024/01/18 20:20:46;;;;;;;69.13;30.07;;;;;;;;;;10114363;29;20045;-82
2024/01/18 20:25:48;;;;;;;69.53;30.33;;;;;;;;;;10099901;29;20046;-81
2024/01/18 20:30:57;;;;;;;75.33;33.63;;;;;;;;;;10120801;29;20069;-81
2024/01/18 20:35:59;;;;;;;84.70;34.20;;;;;;;;;;10106105;29;20151;-81
2024/01/18 20:41:01;;;;;;;74.43;32.77;;;;;;;;;;10117550;29;20033;-82
2024/01/18 20:46:02;;;;;;;74.37;33.30;;;;;;;;;;10123094;29;20044;-82
2024/01/18 20:51:10;;;;;;;82.37;35.77;;;;;;;;;;10123410;29;20059;-81
2024/01/18 20:56:11;;;;;;;79.00;34.63;;;;;;;;;;10122868;29;20036;-81
2024/01/18 21:01:12;;;;;;;74.47;34.93;;;;;;;;;;10123375;29;20036;-81
2024/01/18 21:06:13;;;;;;;76.97;35.23;;;;;;;;;;10115428;29;20091;-81
2024/01/18 21:11:14;;;;;;;76.70;32.90;;;;;;;;;;10103861;29;20036;-81
2024/01/18 21:16:16;;;;;;;73.70;35.40;;;;;;;;;;10122034;29;20036;-83
2024/01/18 21:21:17;;;;;;;78.33;34.03;;;;;;;;;;10121494;29;20713;-81
2024/01/18 21:26:18;;;;;;;75.27;32.50;;;;;;;;;;10122745;29;20044;-82
2024/01/18 21:31:19;;;;;;;73.23;32.23;;;;;;;;;;10120551;29;20560;-82
2024/01/18 21:36:26;;;;;;;69.37;31.10;;;;;;;;;;10121816;29;20071;-82
2024/01/18 21:41:27;;;;;;;57.63;25.53;;;;;;;;;;10120863;29;20068;-82
2024/01/18 21:46:28;;;;;;;53.77;23.00;;;;;;;;;;10120864;29;20045;-81
2024/01/18 21:51:29;;;;;;;54.40;22.43;;;;;;;;;;10121784;29;20039;-81
2024/01/18 21:56:30;;;;;;;43.70;19.80;;;;;;;;;;10120204;29;20068;-81
2024/01/18 22:01:31;;;;;;;38.70;16.83;;;;;;;;;;10097060;29;20059;-82
2024/01/18 22:06:39;;;;;;;39.07;17.93;;;;;;;;;;10102484;29;20128;-81
2024/01/18 22:11:40;;;;;;;40.63;17.97;;;;;;;;;;10120602;29;20036;-82
2024/01/18 22:16:41;;;;;;;46.47;20.03;;;;;;;;;;10103613;29;20032;-82
2024/01/18 22:21:42;;;;;;;42.00;20.00;;;;;;;;;;10100618;29;20124;-82
2024/01/18 22:26:43;;;;;;;49.13;19.43;;;;;;;;;;10118481;29;20060;-82
2024/01/18 22:31:45;;;;;;;38.70;18.37;;;;;;;;;;10110160;29;20048;-84
2024/01/18 22:36:46;;;;;;;42.87;18.57;;;;;;;;;;10120444;29;20036;-83
2024/01/18 22:41:47;;;;;;;42.73;18.90;;;;;;;;;;10117707;29;20032;-82
2024/01/18 22:46:48;;;;;;;39.13;16.93;;;;;;;;;;10124998;29;20040;-80
2024/01/18 22:51:49;;;;;;;39.47;18.00;;;;;;;;;;10118642;29;20055;-80
2024/01/18 22:56:50;;;;;;;40.90;19.93;;;;;;;;;;10121159;29;20461;-82
2024/01/18 23:01:51;;;;;;;49.00;20.43;;;;;;;;;;10102603;29;20536;-82
2024/01/18 23:06:52;;;;;;;51.03;22.10;;;;;;;;;;10113348;29;20045;-81
2024/01/18 23:11:55;;;;;;;51.90;22.53;;;;;;;;;;10114373;29;20135;-80
2024/01/18 23:16:56;;;;;;;51.37;23.60;;;;;;;;;;10120437;29;20040;-81
2024/01/18 23:21:57;;;;;;;55.80;23.47;;;;;;;;;;10099456;29;20573;-82
2024/01/18 23:26:58;;;;;;;53.43;23.07;;;;;;;;;;10117395;29;20041;-81
2024/01/18 23:31:59;;;;;;;44.30;19.90;;;;;;;;;;10113378;29;20155;-82
2024/01/18 23:37:00;;;;;;;62.13;25.07;;;;;;;;;;10112640;29;20433;-82
2024/01/18 23:42:02;;;;;;;56.57;25.60;;;;;;;;;;10118905;29;20128;-82
2024/01/18 23:47:03;;;;;;;69.70;26.77;;;;;;;;;;10106720;29;20044;-83
2024/01/18 23:52:04;;;;;;;65.73;27.40;;;;;;;;;;10126377;29;20036;-83
2024/01/18 23:57:05;;;;;;;64.73;28.33;;;;;;;;;;10123797;29;20049;-82
